Time;durP1;ratioP1;P1;durP2;ratioP2;P2;SDS_P1;SDS_P2;PMS_P1;PMS_P2;Temp;Humidity;BMP_temperature;BMP_pressure;BME280_temperature;BME280_humidity;BME280_pressure;Samples;Min_cycle;Max_cycle;Signal;HPM_P1;HPM_P2
2022/03/16 00:03:56;;;;;;;34.90;28.52;;;;;;;6.41;100.00;100654.59;10420212;28;20060;-70
2022/03/16 00:08:57;;;;;;;35.78;31.00;;;;;;;6.53;100.00;100668.44;10419195;28;20502;-70
2022/03/16 00:13:59;;;;;;;35.63;30.58;;;;;;;6.53;100.00;100659.75;10406247;28;20052;-70
2022/03/16 00:19:01;;;;;;;37.08;30.60;;;;;;;6.39;100.00;100667.66;10427145;28;20046;-69
2022/03/16 00:24:03;;;;;;;38.58;30.05;;;;;;;6.36;100.00;100666.78;10427238;28;20049;-69
2022/03/16 00:29:09;;;;;;;37.90;29.73;;;;;;;6.34;100.00;100673.78;10426859;28;20100;-69
2022/03/16 00:34:10;;;;;;;30.20;27.27;;;;;;;6.28;100.00;100672.91;10392872;28;20136;-69
2022/03/16 00:39:12;;;;;;;30.10;27.10;;;;;;;6.34;100.00;100673.78;10411518;28;20556;-70
2022/03/16 00:44:14;;;;;;;31.48;28.00;;;;;;;6.19;100.00;100672.94;10425616;28;20059;-69
2022/03/16 00:49:15;;;;;;;30.45;27.17;;;;;;;6.08;100.00;100674.75;10408441;28;20045;-69
2022/03/16 00:54:17;;;;;;;28.58;25.60;;;;;;;6.17;100.00;100681.66;10408790;28;20398;-70
2022/03/16 00:59:19;;;;;;;32.00;28.73;;;;;;;5.99;100.00;100686.06;10410110;28;20041;-69
2022/03/16 01:04:20;;;;;;;30.52;27.27;;;;;;;6.00;100.00;100690.41;10426723;28;20043;-69
2022/03/16 01:09:22;;;;;;;30.73;26.23;;;;;;;5.94;100.00;100694.78;10424988;28;20052;-69
2022/03/16 01:14:24;;;;;;;36.53;26.45;;;;;;;5.99;100.00;100696.50;10408585;28;20076;-69
2022/03/16 01:19:26;;;;;;;29.15;26.02;;;;;;;6.00;100.00;100707.81;10410477;28;20075;-70
2022/03/16 01:24:28;;;;;;;29.17;26.15;;;;;;;6.20;100.00;100713.88;10424813;28;20076;-69
2022/03/16 01:29:31;;;;;;;28.45;25.38;;;;;;;6.05;100.00;100719.09;10406804;28;20087;-69
2022/03/16 01:34:35;;;;;;;28.70;25.75;;;;;;;6.10;100.00;100719.09;10405931;28;20504;-70
2022/03/16 01:39:36;;;;;;;32.15;25.50;;;;;;;6.01;100.00;100722.59;10405440;28;20049;-70
2022/03/16 01:44:49;;;;;;;34.55;28.63;;;;;;;5.88;100.00;100729.53;10406303;28;20502;-71
2022/03/16 01:49:57;;;;;;;34.63;27.65;;;;;;;6.07;100.00;100728.69;10404811;28;20052;-70
2022/03/16 01:55:05;;;;;;;29.33;26.45;;;;;;;6.14;100.00;100731.28;10423824;28;20041;-70
2022/03/16 02:00:07;;;;;;;34.53;27.38;;;;;;;6.01;100.00;100738.25;10404203;28;20052;-70
2022/03/16 02:05:17;;;;;;;35.85;28.05;;;;;;;6.07;100.00;100736.53;10407946;28;20084;-70
2022/03/16 02:10:21;;;;;;;35.38;27.40;;;;;;;5.94;100.00;100757.41;10404475;28;20042;-70
2022/03/16 02:15:23;;;;;;;44.05;29.75;;;;;;;5.84;100.00;100761.72;10422253;28;20049;-70
2022/03/16 02:20:27;;;;;;;34.25;27.25;;;;;;;6.04;100.00;100764.34;10424416;28;20065;-70
2022/03/16 02:25:30;;;;;;;33.13;25.80;;;;;;;6.03;100.00;100771.31;10409208;28;20510;-70
2022/03/16 02:30:32;;;;;;;29.38;26.38;;;;;;;5.95;100.00;100782.63;10425073;28;20463;-70
2022/03/16 02:35:34;;;;;;;30.38;25.67;;;;;;;6.00;100.00;100791.31;10423310;28;20049;-71
2022/03/16 02:40:35;;;;;;;29.65;25.55;;;;;;;5.89;100.00;100809.59;10403736;28;20099;-70
2022/03/16 02:45:37;;;;;;;29.67;26.23;;;;;;;6.01;100.00;100819.16;10422589;28;20060;-70
2022/03/16 02:50:39;;;;;;;28.10;24.48;;;;;;;6.01;100.00;100824.38;10423442;28;20052;-70
2022/03/16 02:55:44;;;;;;;31.05;24.92;;;;;;;6.01;100.00;100830.47;10404123;28;20371;-70
2022/03/16 03:00:46;;;;;;;27.38;24.45;;;;;;;6.46;99.96;100839.13;10403653;28;20075;-70
2022/03/16 03:05:48;;;;;;;29.17;24.15;;;;;;;6.36;99.75;100844.34;10402028;28;20103;-70
2022/03/16 03:10:50;;;;;;;30.73;24.30;;;;;;;6.10;100.00;100844.38;10421811;28;20100;-70
2022/03/16 03:15:51;;;;;;;30.17;24.67;;;;;;;6.03;100.00;100859.19;10401558;28;20045;-70
2022/03/16 03:20:53;;;;;;;35.60;24.27;;;;;;;6.13;100.00;100871.34;10401778;28;20057;-70
2022/03/16 03:25:55;;;;;;;29.65;24.13;;;;;;;5.93;100.00;100879.19;10420120;28;20044;-70
2022/03/16 03:30:56;;;;;;;34.05;25.27;;;;;;;5.88;100.00;100887.84;10424223;28;20411;-70
2022/03/16 03:35:58;;;;;;;26.65;23.77;;;;;;;5.77;100.00;100890.44;10420288;28;20038;-70
2022/03/16 03:41:00;;;;;;;30.10;24.42;;;;;;;5.76;100.00;100889.59;10402084;28;20079;-69
2022/03/16 03:46:01;;;;;;;31.65;25.13;;;;;;;5.72;100.00;100902.63;10401398;28;20050;-70
2022/03/16 03:51:03;;;;;;;25.75;22.90;;;;;;;6.05;100.00;100902.66;10403006;28;20056;-70
2022/03/16 03:56:05;;;;;;;24.80;22.52;;;;;;;5.97;100.00;100911.38;10402468;28;20041;-71
2022/03/16 04:01:06;;;;;;;27.13;24.40;;;;;;;5.76;100.00;100910.44;10401670;28;20457;-71
2022/03/16 04:06:09;;;;;;;29.00;22.23;;;;;;;6.25;99.15;100923.59;10401906;28;20042;-71
2022/03/16 04:11:12;;;;;;;29.05;23.00;;;;;;;5.95;100.00;100928.78;10404165;28;20100;-71
2022/03/16 04:16:13;;;;;;;26.65;23.98;;;;;;;5.83;100.00;100937.41;10404190;28;20080;-71
2022/03/16 04:21:15;;;;;;;25.77;22.75;;;;;;;6.00;100.00;100935.72;10419255;28;20045;-71
2022/03/16 04:26:18;;;;;;;31.85;23.80;;;;;;;5.69;100.00;100945.22;10420345;28;20057;-71
2022/03/16 04:31:21;;;;;;;30.67;23.80;;;;;;;5.75;100.00;100946.94;10401913;28;20515;-71
2022/03/16 04:36:23;;;;;;;30.85;22.95;;;;;;;5.83;100.00;100953.94;10424323;28;20045;-71
2022/03/16 04:41:24;;;;;;;28.80;24.60;;;;;;;5.90;100.00;100961.78;10416492;28;20491;-70
2022/03/16 04:46:26;;;;;;;34.78;24.42;;;;;;;5.77;100.00;100968.72;10399947;28;20128;-70
2022/03/16 04:51:28;;;;;;;25.90;23.35;;;;;;;5.76;100.00;100965.25;10407165;22;20092;-69
2022/03/16 04:56:29;;;;;;;26.00;23.15;;;;;;;6.04;97.86;100974.03;10374618;28;20038;-69
2022/03/16 05:01:31;;;;;;;29.58;22.25;;;;;;;6.01;98.20;100984.44;10378069;28;20100;-70
2022/03/16 05:06:32;;;;;;;25.42;22.80;;;;;;;5.94;98.71;100993.16;10381109;28;20044;-70
2022/03/16 05:11:35;;;;;;;27.83;22.85;;;;;;;5.98;98.72;101007.94;10381259;28;20045;-70
2022/03/16 05:16:37;;;;;;;34.97;25.70;;;;;;;5.97;98.16;101014.00;10382874;28;20096;-69
2022/03/16 05:21:39;;;;;;;37.40;25.35;;;;;;;5.88;98.97;101019.16;10381885;28;20456;-69
2022/03/16 05:26:41;;;;;;;37.33;26.27;;;;;;;5.76;99.71;101019.16;10381646;28;20037;-69
2022/03/16 05:31:43;;;;;;;31.52;24.50;;;;;;;5.71;100.00;101036.50;10381995;28;20057;-69
2022/03/16 05:36:44;;;;;;;27.63;24.25;;;;;;;5.66;100.00;101038.22;10366342;28;20052;-68
2022/03/16 05:41:46;;;;;;;31.08;24.25;;;;;;;5.64;100.00;101047.78;10381068;28;20057;-69
2022/03/16 05:46:47;;;;;;;39.47;27.83;;;;;;;5.76;100.00;101047.84;10381401;28;20107;-70
2022/03/16 05:51:49;;;;;;;30.35;24.98;;;;;;;5.69;100.00;101056.50;10380918;28;20052;-70
2022/03/16 05:56:51;;;;;;;32.08;24.38;;;;;;;5.78;99.35;101062.63;10381396;28;20407;-69
2022/03/16 06:01:52;;;;;;;37.30;24.23;;;;;;;5.93;98.32;101064.47;10381016;28;20056;-69
2022/03/16 06:06:54;;;;;;;27.85;24.98;;;;;;;5.75;99.80;101074.78;10380778;28;20131;-68
2022/03/16 06:11:57;;;;;;;27.20;23.40;;;;;;;5.90;99.09;101069.66;10379617;28;20046;-69
2022/03/16 06:16:58;;;;;;;36.42;24.50;;;;;;;5.85;99.22;101075.72;10380414;28;20038;-70
2022/03/16 06:22:00;;;;;;;27.58;24.50;;;;;;;6.19;97.57;101080.19;10362246;28;20050;-69
2022/03/16 06:27:02;;;;;;;24.38;21.83;;;;;;;6.38;95.05;101078.53;10379963;28;20045;-70
2022/03/16 06:32:04;;;;;;;36.67;22.83;;;;;;;6.42;94.50;101090.72;10380668;28;20120;-70
2022/03/16 06:37:05;;;;;;;25.63;23.10;;;;;;;6.67;92.77;101098.59;10380261;28;20053;-69
2022/03/16 06:42:07;;;;;;;24.15;21.90;;;;;;;6.93;91.31;101107.31;10379516;28;20042;-69
2022/03/16 06:47:09;;;;;;;28.05;24.10;;;;;;;7.06;90.77;101123.88;10379172;28;20041;-68
2022/03/16 06:52:11;;;;;;;26.10;21.90;;;;;;;7.15;89.30;101125.63;10361475;28;20054;-69
2022/03/16 06:57:12;;;;;;;25.45;22.27;;;;;;;7.04;89.25;101131.72;10380390;28;20410;-70
2022/03/16 07:02:50;;;;;;;23.98;21.42;;;;;;;6.88;90.38;101127.38;10380686;28;20045;-70
2022/03/16 07:07:52;;;;;;;23.45;21.02;;;;;;;7.45;86.95;101127.34;10379485;28;20462;-70
2022/03/16 07:12:53;;;;;;;26.50;22.50;;;;;;;7.39;87.83;101136.06;10362714;28;20038;-69
2022/03/16 07:17:55;;;;;;;24.48;21.88;;;;;;;7.85;84.82;101138.59;10378935;28;20046;-69
2022/03/16 07:23:04;;;;;;;28.00;21.60;;;;;;;8.05;84.20;101138.50;10376514;28;20050;-68
2022/03/16 07:28:10;;;;;;;25.08;22.38;;;;;;;7.79;84.16;101141.22;10360122;28;20480;-69
2022/03/16 07:33:13;;;;;;;28.33;21.90;;;;;;;7.73;85.89;101143.84;10377347;28;20046;-70
2022/03/16 07:38:14;;;;;;;22.80;20.65;;;;;;;7.96;84.10;101149.88;10359224;28;20045;-69
2022/03/16 07:43:16;;;;;;;27.17;20.88;;;;;;;7.38;86.24;101149.13;10375273;28;20050;-69
2022/03/16 07:48:18;;;;;;;22.92;20.88;;;;;;;7.50;86.85;101160.47;10376431;28;20049;-69
2022/03/16 07:53:19;;;;;;;23.17;20.95;;;;;;;7.71;85.44;101156.09;10375924;28;20136;-70
2022/03/16 07:58:21;;;;;;;21.88;19.75;;;;;;;8.41;81.39;101158.50;10374815;28;20049;-69
2022/03/16 08:03:23;;;;;;;23.23;20.70;;;;;;;8.60;80.79;101172.38;10376319;28;20054;-69
2022/03/16 08:08:25;;;;;;;22.55;20.33;;;;;;;8.69;80.02;101176.69;10376761;28;20053;-68
2022/03/16 08:13:26;;;;;;;23.55;21.05;;;;;;;8.45;80.70;101194.25;10358243;28;20061;-68
2022/03/16 08:18:28;;;;;;;22.55;20.45;;;;;;;8.61;80.86;101188.97;10375452;28;20042;-70
2022/03/16 08:23:30;;;;;;;24.63;22.15;;;;;;;8.61;80.85;101192.44;10357459;28;20125;-68
2022/03/16 08:28:32;;;;;;;24.30;21.90;;;;;;;8.47;81.28;101195.13;10375188;28;20104;-68
2022/03/16 08:33:34;;;;;;;24.05;21.80;;;;;;;8.38;81.86;101195.19;10376620;28;20053;-69
2022/03/16 08:38:37;;;;;;;23.25;21.02;;;;;;;8.74;79.94;101198.50;10382978;28;20402;-68
2022/03/16 08:43:39;;;;;;;23.60;21.52;;;;;;;8.94;78.90;101198.34;10384702;28;20050;-68
2022/03/16 08:48:40;;;;;;;24.52;21.88;;;;;;;8.99;79.33;101202.72;10365520;28;20061;-69
2022/03/16 08:53:42;;;;;;;23.20;21.10;;;;;;;8.77;78.84;101209.84;10382363;28;20049;-69
2022/03/16 08:58:44;;;;;;;22.80;20.55;;;;;;;9.19;78.74;101207.81;10382080;28;20042;-69
2022/03/16 09:03:45;;;;;;;23.52;21.27;;;;;;;9.20;76.55;101206.06;10381265;28;20046;-69
2022/03/16 09:08:47;;;;;;;23.80;21.15;;;;;;;9.54;74.40;101211.91;10381492;28;20050;-69
2022/03/16 09:13:48;;;;;;;24.50;21.98;;;;;;;9.77;73.53;101203.81;10364314;28;20053;-69
2022/03/16 09:18:52;;;;;;;24.38;22.02;;;;;;;9.73;71.97;101212.59;10382567;28;20064;-69
2022/03/16 09:23:54;;;;;;;24.33;22.33;;;;;;;9.46;76.23;101213.72;10381294;28;20054;-69
2022/03/16 09:28:56;;;;;;;25.50;23.30;;;;;;;9.88;72.31;101209.84;10381620;28;20408;-69
2022/03/16 09:34:04;;;;;;;23.23;21.52;;;;;;;9.98;69.28;101218.50;10381738;28;20049;-68
2022/03/16 09:39:05;;;;;;;23.60;21.15;;;;;;;9.86;70.88;101220.34;10363967;28;20468;-69
2022/03/16 09:44:07;;;;;;;22.08;20.17;;;;;;;10.32;68.24;101217.28;10373235;28;20053;-68
2022/03/16 09:49:09;;;;;;;21.73;19.95;;;;;;;10.56;66.76;101216.06;10362939;28;20038;-69
2022/03/16 09:54:10;;;;;;;20.77;18.98;;;;;;;10.98;67.66;101212.88;10380854;28;20504;-69
2022/03/16 09:59:12;;;;;;;20.55;18.77;;;;;;;11.47;63.94;101217.41;10380830;28;20492;-69
2022/03/16 10:04:28;;;;;;;20.83;19.23;;;;;;;11.84;60.86;101210.63;10381313;28;20492;-70
2022/03/16 10:15:11;;;;;;;20.27;18.67;;;;;;;11.90;61.36;101214.91;10380681;28;20050;-69
2022/03/16 10:20:36;;;;;;;22.10;20.35;;;;;;;11.67;60.42;101207.38;10344123;28;20038;-70
2022/03/16 10:25:40;;;;;;;20.67;19.27;;;;;;;12.38;59.60;101199.03;10338999;28;20134;-71
2022/03/16 10:31:07;;;;;;;23.05;21.25;;;;;;;12.46;59.76;101202.38;10338871;28;20145;-70
2022/03/16 10:36:11;;;;;;;22.60;20.90;;;;;;;12.18;60.49;101198.59;10339763;28;20046;-71
2022/03/16 10:46:50;;;;;;;22.92;21.13;;;;;;;11.42;60.47;101198.16;10339175;28;20042;-70
2022/03/16 10:52:02;;;;;;;23.98;22.17;;;;;;;11.79;61.13;101195.75;10393494;22;20044;-72
2022/03/16 10:57:08;;;;;;;21.80;20.25;;;;;;;11.96;60.43;101198.13;10417486;28;20034;-72
2022/03/16 11:02:13;;;;;;;23.85;21.92;;;;;;;12.02;59.84;101195.38;10417908;28;20045;-71
2022/03/16 11:07:18;;;;;;;24.95;23.15;;;;;;;11.80;59.57;101208.03;10417651;28;20038;-71
2022/03/16 11:17:43;;;;;;;22.55;20.95;;;;;;;11.88;58.53;101202.66;10416513;28;20092;-71
2022/03/16 11:28:37;;;;;;;21.67;20.15;;;;;;;12.23;57.38;101196.72;10417212;28;20033;-72
2022/03/16 11:33:52;;;;;;;17.42;16.13;;;;;;;12.34;55.21;101190.31;10398245;28;20131;-72
2022/03/16 11:38:54;;;;;;;20.50;18.67;;;;;;;12.72;55.36;101191.28;10416641;28;20410;-73
2022/03/16 11:44:00;;;;;;;15.10;14.00;;;;;;;13.04;51.12;101187.03;10398988;28;20445;-73
2022/03/16 11:49:03;;;;;;;15.90;14.70;;;;;;;13.17;52.83;101179.69;10415418;28;20049;-71
2022/03/16 11:54:06;;;;;;;16.20;14.70;;;;;;;13.06;53.73;101185.22;10414952;28;20099;-72
2022/03/16 11:59:28;;;;;;;15.68;14.48;;;;;;;12.96;51.56;101175.78;10415092;28;20048;-72
2022/03/16 12:04:33;;;;;;;16.13;14.93;;;;;;;12.80;52.59;101177.91;10416270;28;20440;-71
2022/03/16 12:09:39;;;;;;;17.00;15.88;;;;;;;12.93;53.34;101181.16;10415508;28;20495;-72
2022/03/16 12:14:58;;;;;;;13.70;12.70;;;;;;;13.23;50.57;101174.28;10422308;28;20051;-71
2022/03/16 12:20:15;;;;;;;14.02;13.02;;;;;;;12.80;50.75;101162.09;10422856;28;20041;-71
2022/03/16 12:25:25;;;;;;;12.80;11.90;;;;;;;12.74;50.72;101168.34;10422212;28;20053;-71
2022/03/16 12:30:27;;;;;;;13.60;12.60;;;;;;;12.85;50.04;101168.13;10421716;28;20111;-71
2022/03/16 12:35:33;;;;;;;14.68;13.57;;;;;;;12.75;50.71;101158.66;10423020;28;20049;-71
2022/03/16 12:42:31;;;;;;;13.67;12.77;;;;;;;12.99;50.06;101151.97;10423374;28;20440;-71
2022/03/16 12:46:11;;;;;;;13.32;12.40;;;;;;;12.70;51.57;101156.13;10422752;28;20104;-71
2022/03/16 12:51:18;;;;;;;11.73;10.82;;;;;;;12.31;50.92;101149.97;10421003;28;20049;-71
2022/03/16 12:56:19;;;;;;;11.63;10.80;;;;;;;12.51;49.85;101145.13;10422857;28;20103;-70
2022/03/16 13:01:22;;;;;;;11.68;10.70;;;;;;;12.92;49.91;101143.31;10421877;28;20049;-71
2022/03/16 13:06:24;;;;;;;10.00;9.23;;;;;;;12.95;49.35;101143.25;10422338;28;20475;-71
2022/03/16 13:11:28;;;;;;;12.07;10.98;;;;;;;13.21;48.96;101133.81;10420246;28;20041;-71
2022/03/16 13:16:34;;;;;;;10.30;9.32;;;;;;;12.97;48.89;101135.28;10421222;28;20442;-71
2022/03/16 13:21:37;;;;;;;10.85;10.05;;;;;;;12.87;46.84;101135.50;10422521;28;20461;-71
2022/03/16 13:26:39;;;;;;;9.93;9.23;;;;;;;12.43;49.45;101146.19;10420809;28;20514;-70
2022/03/16 13:31:42;;;;;;;10.55;9.85;;;;;;;12.61;47.33;101145.78;10420712;28;20406;-71
2022/03/16 13:36:44;;;;;;;10.15;9.40;;;;;;;12.37;47.01;101141.94;10420807;28;20049;-71
2022/03/16 13:42:11;;;;;;;10.73;10.02;;;;;;;12.32;47.46;101131.47;10419640;28;20553;-72
2022/03/16 13:47:12;;;;;;;10.48;9.60;;;;;;;12.36;47.97;101127.88;10418768;28;20470;-71
2022/03/16 13:52:18;;;;;;;9.80;9.00;;;;;;;12.25;48.26;101135.13;10419434;28;20099;-70
2022/03/16 13:57:28;;;;;;;10.53;9.73;;;;;;;11.81;49.55;101134.22;10420766;28;20057;-71
2022/03/16 14:02:31;;;;;;;10.00;9.10;;;;;;;12.09;48.12;101128.47;10419886;28;20541;-71
2022/03/16 14:07:45;;;;;;;10.75;9.95;;;;;;;12.24;48.69;101136.03;10417780;28;20037;-71
2022/03/16 14:12:47;;;;;;;11.32;10.45;;;;;;;12.20;48.88;101136.13;10419159;28;20049;-71
2022/03/16 14:17:54;;;;;;;10.95;10.20;;;;;;;12.38;48.34;101133.97;10418669;28;20067;-71
2022/03/16 14:22:56;;;;;;;;;;;;;;;12.50;48.78;101143.41;10402795;28;20099;-71
2022/03/16 14:28:00;;;;;;;10.20;9.40;;;;;;;12.49;49.50;101139.03;10416942;28;19931;-70
2022/03/16 14:33:05;;;;;;;11.65;10.57;;;;;;;12.22;49.08;101137.84;10416695;28;20119;-71
2022/03/16 14:38:09;;;;;;;10.85;9.95;;;;;;;11.91;50.97;101142.00;10403036;28;20443;-72
2022/03/16 14:43:10;;;;;;;8.70;8.02;;;;;;;12.07;49.19;101144.28;10386154;28;20053;-71
2022/03/16 14:48:12;;;;;;;8.70;8.00;;;;;;;12.00;48.55;101134.78;10418053;28;20041;-71
2022/03/16 14:53:13;;;;;;;8.20;7.57;;;;;;;11.65;49.29;101129.31;10399815;28;20103;-71
2022/03/16 14:58:15;;;;;;;9.95;9.15;;;;;;;11.59;49.08;101133.75;10404463;28;20045;-71
2022/03/16 15:03:18;;;;;;;9.55;8.85;;;;;;;11.84;48.84;101136.84;10416790;28;20119;-71
2022/03/16 15:08:19;;;;;;;9.55;8.85;;;;;;;11.83;49.17;101124.59;10417067;28;20045;-70
2022/03/16 15:13:21;;;;;;;10.15;9.43;;;;;;;11.69;49.32;101123.09;10416837;28;20041;-71
2022/03/16 15:18:23;;;;;;;9.68;8.85;;;;;;;11.74;49.62;101121.22;10417242;28;20095;-71
2022/03/16 15:23:24;;;;;;;10.48;9.65;;;;;;;11.83;49.13;101118.44;10418682;28;20133;-71
2022/03/16 15:28:26;;;;;;;10.10;9.40;;;;;;;12.02;49.74;101117.16;10416930;28;20115;-71
2022/03/16 15:33:28;;;;;;;10.95;10.05;;;;;;;11.88;49.76;101121.84;10417036;28;20053;-71
2022/03/16 15:38:29;;;;;;;10.98;10.27;;;;;;;11.80;50.35;101118.47;10416237;28;20051;-71
2022/03/16 15:43:31;;;;;;;11.18;10.45;;;;;;;11.49;50.98;101124.31;10398515;28;20049;-71
2022/03/16 15:48:33;;;;;;;10.50;9.80;;;;;;;11.68;50.28;101116.06;10416608;28;20041;-71
2022/03/16 15:53:34;;;;;;;11.02;10.07;;;;;;;11.84;50.15;101126.31;10416199;28;20124;-71
2022/03/16 15:58:41;;;;;;;10.17;9.57;;;;;;;11.81;49.20;101128.09;10417065;28;20037;-70
2022/03/16 16:03:43;;;;;;;9.75;9.13;;;;;;;11.73;49.28;101130.00;10415928;28;20111;-72
2022/03/16 16:08:45;;;;;;;10.30;9.52;;;;;;;11.78;49.83;101136.09;10415599;28;20045;-72
2022/03/16 16:13:47;;;;;;;10.32;9.63;;;;;;;11.58;49.76;101139.94;10414745;28;20045;-73
2022/03/16 16:18:49;;;;;;;9.98;9.27;;;;;;;11.22;51.83;101146.72;10397348;28;20037;-71
2022/03/16 16:23:51;;;;;;;12.38;11.48;;;;;;;11.68;49.75;101145.91;10415785;28;20081;-72
2022/03/16 16:28:56;;;;;;;15.30;14.20;;;;;;;11.48;49.54;101162.06;10398218;28;20203;-72
2022/03/16 16:33:57;;;;;;;15.02;13.98;;;;;;;11.34;50.72;101164.09;10416009;28;20442;-72
2022/03/16 16:39:00;;;;;;;14.48;13.48;;;;;;;11.26;49.91;101168.59;10415794;28;20042;-73
2022/03/16 16:44:02;;;;;;;13.70;12.68;;;;;;;11.13;49.57;101164.44;10415946;28;20041;-74
2022/03/16 16:49:04;;;;;;;13.55;12.55;;;;;;;11.26;49.35;101168.59;10414408;28;20120;-73
2022/03/16 16:54:05;;;;;;;12.73;11.82;;;;;;;11.16;48.91;101174.91;10495762;22;20048;-72
2022/03/16 16:59:07;;;;;;;13.00;12.02;;;;;;;11.00;50.05;101176.91;10490759;28;20517;-71
2022/03/16 17:04:09;;;;;;;13.52;12.52;;;;;;;11.15;49.34;101178.41;10509855;28;20079;-71
2022/03/16 17:09:10;;;;;;;13.13;12.13;;;;;;;10.95;50.40;101168.22;10509212;28;20070;-70
2022/03/16 17:14:14;;;;;;;13.20;12.10;;;;;;;10.93;50.15;101172.63;10491147;28;20072;-70
2022/03/16 17:19:16;;;;;;;14.15;13.15;;;;;;;10.87;51.00;101181.47;10493125;28;20093;-70
2022/03/16 17:24:17;;;;;;;15.45;14.05;;;;;;;10.79;51.74;101178.94;10488042;28;20519;-71
2022/03/16 17:29:20;;;;;;;14.57;13.48;;;;;;;10.49;53.11;101180.25;10488762;28;20098;-71
2022/03/16 17:34:21;;;;;;;15.23;14.02;;;;;;;10.63;53.07;101182.72;10506499;28;20087;-71
2022/03/16 17:39:23;;;;;;;13.63;12.57;;;;;;;10.60;52.96;101191.50;10487894;28;20128;-71
2022/03/16 17:49:48;;;;;;;13.73;12.73;;;;;;;10.40;53.93;101209.25;10487793;28;20041;-70
2022/03/16 17:54:50;;;;;;;13.90;12.80;;;;;;;10.23;54.64;101211.22;10506217;28;20052;-71
2022/03/16 17:59:52;;;;;;;14.25;13.15;;;;;;;10.13;55.87;101218.31;10489996;28;20040;-71
2022/03/16 18:04:55;;;;;;;14.20;13.07;;;;;;;10.14;55.92;101217.44;10507492;28;20052;-71
2022/03/16 18:15:20;;;;;;;16.08;14.82;;;;;;;9.82;57.65;101213.38;10505583;28;20040;-71
2022/03/16 18:20:22;;;;;;;16.27;15.02;;;;;;;9.97;57.33;101215.00;10505604;28;20048;-71
2022/03/16 18:25:24;;;;;;;18.25;16.63;;;;;;;9.60;58.81;101214.47;10505243;28;20127;-70
2022/03/16 18:30:26;;;;;;;18.50;16.75;;;;;;;9.86;58.65;101217.72;10505911;28;20506;-71
2022/03/16 18:35:27;;;;;;;19.15;16.83;;;;;;;9.72;59.55;101210.88;10505847;28;20051;-71
2022/03/16 18:40:29;;;;;;;18.00;16.70;;;;;;;9.61;60.40;101210.97;10504945;28;20048;-72
2022/03/16 18:45:31;;;;;;;20.33;18.75;;;;;;;9.65;60.39;101211.78;10485673;28;20041;-72
2022/03/16 18:50:37;;;;;;;20.83;19.13;;;;;;;9.13;62.19;101214.88;10504599;28;20039;-71
2022/03/16 18:55:41;;;;;;;20.98;19.30;;;;;;;9.50;61.88;101229.44;10504438;28;20123;-72
2022/03/16 19:00:44;;;;;;;21.88;19.92;;;;;;;9.18;62.97;101220.94;10485155;28;20048;-71
2022/03/16 19:05:46;;;;;;;22.60;20.35;;;;;;;8.77;64.26;101222.09;10487665;28;20405;-71
2022/03/16 19:13:45;;;;;;;22.27;20.48;;;;;;;8.62;65.54;101225.63;10504434;28;20070;-71
2022/03/16 19:16:10;;;;;;;23.17;21.10;;;;;;;8.81;65.38;101216.81;10504899;28;20478;-72
2022/03/16 19:21:17;;;;;;;24.70;22.20;;;;;;;8.81;65.49;101224.69;10484824;28;20029;-71
2022/03/16 19:26:20;;;;;;;25.58;23.33;;;;;;;8.67;66.57;101228.22;10502993;28;20564;-71
2022/03/16 19:31:22;;;;;;;22.45;20.55;;;;;;;8.35;67.53;101222.22;10501871;28;20040;-71
2022/03/16 19:36:25;;;;;;;26.73;24.35;;;;;;;8.69;66.80;101218.63;10484354;28;20056;-73
2022/03/16 19:41:27;;;;;;;26.98;24.13;;;;;;;8.23;68.45;101213.53;10502444;28;20040;-71
2022/03/16 19:46:29;;;;;;;25.95;22.98;;;;;;;8.31;68.38;101206.50;10500841;28;20069;-71
2022/03/16 19:51:31;;;;;;;26.17;23.63;;;;;;;7.96;69.34;101217.09;10501538;28;20071;-71
2022/03/16 19:56:38;;;;;;;23.65;21.90;;;;;;;7.81;70.34;101213.63;10502430;28;20048;-72
2022/03/16 20:01:41;;;;;;;24.90;22.42;;;;;;;7.73;70.66;101204.06;10502387;28;20040;-71
2022/03/16 20:06:43;;;;;;;25.50;23.27;;;;;;;7.68;71.98;101200.56;10501743;28;20106;-71
2022/03/16 20:11:45;;;;;;;25.85;23.45;;;;;;;7.75;71.94;101203.19;10502293;28;20045;-71
2022/03/16 20:16:47;;;;;;;24.35;22.15;;;;;;;7.89;72.35;101199.66;10500807;28;20036;-72
2022/03/16 20:21:49;;;;;;;24.45;22.23;;;;;;;7.64;71.66;101202.31;10501043;28;20116;-72
2022/03/16 20:26:50;;;;;;;23.73;21.60;;;;;;;7.33;72.84;101204.06;10539571;28;20060;-70
2022/03/16 20:31:52;;;;;;;22.73;20.83;;;;;;;7.17;73.50;101186.63;10512006;28;20075;-72
2022/03/16 20:36:54;;;;;;;26.67;23.98;;;;;;;7.25;74.43;101195.34;10552393;28;20047;-71
2022/03/16 20:41:55;;;;;;;25.15;22.80;;;;;;;7.00;74.09;101195.34;10551928;28;20097;-70
2022/03/16 20:46:57;;;;;;;28.63;24.95;;;;;;;6.71;75.76;101202.25;10553511;28;20106;-72
2022/03/16 20:52:02;;;;;;;25.83;23.58;;;;;;;6.66;76.06;101194.41;10552487;28;20535;-71
2022/03/16 20:57:05;;;;;;;26.17;23.80;;;;;;;6.66;76.16;101209.19;10551989;28;20105;-72
2022/03/16 21:02:11;;;;;;;24.00;21.98;;;;;;;6.46;75.71;101199.56;10551369;28;20052;-71
2022/03/16 21:07:13;;;;;;;25.83;23.35;;;;;;;6.45;76.66;101204.75;10533551;28;20040;-71
2022/03/16 21:12:16;;;;;;;25.63;22.98;;;;;;;6.44;77.08;101214.34;10550047;28;20040;-70
2022/03/16 21:17:20;;;;;;;26.88;24.33;;;;;;;6.40;78.21;101216.94;10550920;28;20052;-72
2022/03/16 21:22:22;;;;;;;26.17;23.73;;;;;;;6.38;78.75;101231.75;10549603;28;20050;-72
2022/03/16 21:27:24;;;;;;;27.38;24.85;;;;;;;6.37;78.88;101227.38;10531594;28;20046;-71
2022/03/16 21:32:25;;;;;;;25.40;23.10;;;;;;;6.21;79.58;101244.72;10549909;28;20044;-71
2022/03/16 21:37:27;;;;;;;26.23;23.63;;;;;;;6.11;80.02;101243.78;10549490;28;20040;-70
2022/03/16 21:42:48;;;;;;;25.70;23.35;;;;;;;5.89;80.62;101253.19;10549271;28;20063;-71
2022/03/16 21:47:50;;;;;;;25.45;23.25;;;;;;;5.70;81.45;101244.34;10530872;28;20052;-72
2022/03/16 21:52:54;;;;;;;26.50;24.00;;;;;;;5.73;81.45;101252.19;10548114;28;20044;-71
2022/03/16 21:57:57;;;;;;;25.40;23.00;;;;;;;5.54;80.65;101248.56;10515284;28;20078;-71
2022/03/16 22:02:58;;;;;;;26.33;24.02;;;;;;;5.60;81.72;101245.13;10548229;28;20428;-70
2022/03/16 22:08:00;;;;;;;27.30;24.52;;;;;;;5.31;81.81;101256.19;10529266;28;20424;-72
2022/03/16 22:13:02;;;;;;;27.85;25.00;;;;;;;5.49;82.63;101257.19;10547252;28;20050;-72
2022/03/16 22:18:04;;;;;;;33.50;28.00;;;;;;;5.72;81.82;101258.28;10546164;28;20050;-71
2022/03/16 22:23:06;;;;;;;31.17;28.00;;;;;;;5.50;82.74;101264.19;10545548;28;20089;-71
2022/03/16 22:28:08;;;;;;;31.08;27.88;;;;;;;5.20;83.80;101243.91;10526820;28;20123;-70
2022/03/16 22:33:10;;;;;;;39.05;29.80;;;;;;;5.46;83.17;101236.34;10526855;28;20047;-72
2022/03/16 22:38:13;;;;;;;32.60;28.98;;;;;;;5.62;83.21;101226.88;10527378;28;20063;-70
2022/03/16 22:43:15;;;;;;;31.15;28.08;;;;;;;5.41;83.27;101204.13;10545153;28;20036;-71
2022/03/16 22:48:21;;;;;;;31.90;28.45;;;;;;;5.34;83.95;101197.97;10526493;28;20139;-71
2022/03/16 22:53:23;;;;;;;31.98;28.63;;;;;;;5.09;85.60;101191.69;10535329;22;20446;-73
2022/03/16 22:58:25;;;;;;;31.83;27.83;;;;;;;5.23;83.02;101184.88;10508685;28;20040;-73
2022/03/16 23:03:27;;;;;;;34.17;30.17;;;;;;;5.03;84.90;101186.41;10505385;28;20037;-74
2022/03/16 23:08:29;;;;;;;32.22;28.70;;;;;;;4.89;83.64;101186.28;10504273;28;20044;-74
2022/03/16 23:13:30;;;;;;;32.03;28.95;;;;;;;4.99;85.38;101177.69;10504640;28;20045;-74
2022/03/16 23:18:32;;;;;;;33.75;30.17;;;;;;;5.35;84.41;101183.22;10507454;28;20520;-74
2022/03/16 23:23:34;;;;;;;35.83;30.98;;;;;;;5.27;84.09;101191.00;10504669;28;20460;-74
2022/03/16 23:28:36;;;;;;;38.83;32.45;;;;;;;5.15;84.33;101190.88;10503412;28;20052;-73